Time;durP1;ratioP1;P1;durP2;ratioP2;P2;SDS_P1;SDS_P2;PMS_P1;PMS_P2;Temp;Humidity;BMP_temperature;BMP_pressure;BME280_temperature;BME280_humidity;BME280_pressure;Samples;Min_cycle;Max_cycle;Signal;HPM_P1;HPM_P2
2022/01/09 00:01:45;;;;;;;;;;;-0.60;90.20;;;;;;6036820;23;20343;-77
2022/01/09 00:04:12;;;;;;;;;;;-0.60;90.30;;;;;;6037274;23;19929;-78
2022/01/09 00:06:39;;;;;;;;;;;-0.60;90.30;;;;;;6038338;23;20343;-79
2022/01/09 00:09:05;;;;;;;;;;;-0.60;90.50;;;;;;6037949;23;19926;-77
2022/01/09 00:11:32;;;;;;;;;;;-0.50;90.70;;;;;;6036972;23;19926;-78
2022/01/09 00:13:59;;;;;;;;;;;-0.50;90.60;;;;;;6037869;23;19933;-79
2022/01/09 00:16:26;;;;;;;;;;;-0.50;90.40;;;;;;6036635;23;19977;-79
2022/01/09 00:18:53;;;;;;;;;;;-0.50;90.50;;;;;;6037889;23;19922;-78
2022/01/09 00:21:19;;;;;;;;;;;-0.40;90.50;;;;;;6037890;23;19922;-77
2022/01/09 00:23:46;;;;;;;;;;;-0.40;90.80;;;;;;6036982;23;19926;-77
2022/01/09 00:26:15;;;;;;;;;;;-0.50;91.10;;;;;;6037454;23;19922;-79
2022/01/09 00:28:42;;;;;;;;;;;-0.50;91.20;;;;;;6036883;23;19922;-80
2022/01/09 00:31:08;;;;;;;;;;;-0.50;91.00;;;;;;6038265;23;20007;-77
2022/01/09 00:33:35;;;;;;;;;;;-0.40;90.90;;;;;;6034715;23;19925;-77
2022/01/09 00:36:02;;;;;;;;;;;-0.40;90.80;;;;;;6037715;23;19962;-79
2022/01/09 00:38:29;;;;;;;;;;;-0.40;91.10;;;;;;6036485;23;19928;-77
2022/01/09 00:40:56;;;;;;;;;;;-0.40;91.00;;;;;;6035196;23;19945;-77
2022/01/09 00:43:23;;;;;;;;;;;-0.40;91.00;;;;;;6036818;23;20395;-79
2022/01/09 00:45:50;;;;;;;;;;;-0.30;90.70;;;;;;6036524;23;20455;-77
2022/01/09 00:48:17;;;;;;;;;;;-0.30;90.90;;;;;;6037454;23;19922;-77
2022/01/09 00:50:44;;;;;;;;;;;-0.30;90.90;;;;;;6035825;23;19977;-80
2022/01/09 00:53:11;;;;;;;;;;;-0.30;90.70;;;;;;6037285;23;20033;-77
2022/01/09 00:55:37;;;;;;;;;;;-0.30;90.60;;;;;;6035518;23;19921;-78
2022/01/09 00:58:04;;;;;;;;;;;-0.30;90.50;;;;;;6036744;23;19993;-77
2022/01/09 01:00:31;;;;;;;;;;;-0.20;90.60;;;;;;6036698;23;19930;-79
2022/01/09 01:02:58;;;;;;;;;;;-0.10;90.50;;;;;;6036776;23;19922;-77
2022/01/09 01:05:25;;;;;;;;;;;0.00;90.50;;;;;;6037098;23;19926;-77
2022/01/09 01:07:52;;;;;;;;;;;0.00;90.50;;;;;;6036087;23;19926;-77
2022/01/09 01:10:19;;;;;;;;;;;0.10;90.50;;;;;;6013854;23;20343;-77
2022/01/09 01:12:46;;;;;;;;;;;0.20;90.50;;;;;;6036763;23;20025;-79
2022/01/09 01:15:13;;;;;;;;;;;0.20;90.40;;;;;;6037788;23;19922;-76
2022/01/09 01:17:40;;;;;;;;;;;0.20;90.50;;;;;;6037901;23;20392;-77
2022/01/09 01:20:08;;;;;;;;;;;0.20;90.40;;;;;;6037642;23;19997;-79
2022/01/09 01:22:36;;;;;;;;;;;0.20;90.30;;;;;;6036430;23;19992;-77
2022/01/09 01:25:04;;;;;;;;;;;0.30;90.40;;;;;;6037535;23;19926;-79
2022/01/09 01:27:31;;;;;;;;;;;0.30;90.30;;;;;;6038053;23;19933;-79
2022/01/09 01:29:58;;;;;;;;;;;0.40;90.30;;;;;;6037014;23;19922;-78
2022/01/09 01:32:25;;;;;;;;;;;0.40;90.20;;;;;;6037484;23;19922;-79
2022/01/09 01:34:52;;;;;;;;;;;0.40;90.20;;;;;;6036611;23;19990;-79
2022/01/09 01:37:19;;;;;;;;;;;0.40;90.10;;;;;;6037033;23;19922;-77
2022/01/09 01:39:45;;;;;;;;;;;0.50;90.10;;;;;;6036478;23;19929;-79
2022/01/09 01:42:12;;;;;;;;;;;0.50;90.00;;;;;;6037290;23;19921;-79
2022/01/09 01:44:41;;;;;;;;;;;0.50;90.00;;;;;;6036303;23;19922;-79
2022/01/09 01:47:08;;;;;;;;;;;0.60;89.70;;;;;;6037369;23;20259;-77
2022/01/09 01:49:35;;;;;;;;;;;0.60;89.60;;;;;;6036173;23;19922;-78
2022/01/09 01:52:02;;;;;;;;;;;0.70;89.20;;;;;;6037113;23;19921;-77
2022/01/09 01:54:29;;;;;;;;;;;0.60;89.10;;;;;;6039027;23;19973;-77
2022/01/09 01:56:56;;;;;;;;;;;0.70;89.20;;;;;;6036489;23;20439;-77
2022/01/09 01:59:22;;;;;;;;;;;0.70;89.00;;;;;;6037271;23;20303;-77
2022/01/09 02:01:49;;;;;;;;;;;0.70;88.80;;;;;;6035949;23;19954;-78
2022/01/09 02:04:16;;;;;;;;;;;0.80;88.70;;;;;;6037594;23;19926;-77
2022/01/09 02:06:43;;;;;;;;;;;0.80;88.70;;;;;;6036475;23;19922;-79
2022/01/09 02:09:10;;;;;;;;;;;0.80;88.60;;;;;;6037114;23;19922;-77
2022/01/09 02:11:37;;;;;;;;;;;0.80;88.80;;;;;;6036317;23;19925;-79
2022/01/09 02:14:03;;;;;;;;;;;0.80;88.70;;;;;;6037040;23;19977;-77
2022/01/09 02:16:31;;;;;;;;;;;0.80;88.60;;;;;;6037280;23;19922;-77
2022/01/09 02:19:02;;;;;;;;;;;0.80;89.00;;;;;;6036206;23;20276;-77
2022/01/09 02:21:29;;;;;;;;;;;0.80;89.00;;;;;;6036709;23;19926;-78
2022/01/09 02:23:55;;;;;;;;;;;0.80;89.00;;;;;;6036587;23;20352;-79
2022/01/09 02:26:26;;;;;;;;;;;0.80;89.20;;;;;;6037428;23;19925;-79
2022/01/09 02:28:53;;;;;;;;;;;0.70;88.90;;;;;;6038148;23;19926;-78
2022/01/09 02:31:20;;;;;;;;;;;0.70;88.90;;;;;;6038077;23;19926;-78
2022/01/09 02:33:47;;;;;;;;;;;0.70;89.10;;;;;;6035976;23;19970;-77
2022/01/09 02:36:14;;;;;;;;;;;0.70;89.20;;;;;;6037579;23;19963;-79
2022/01/09 02:38:40;;;;;;;;;;;0.70;89.10;;;;;;6036612;23;19973;-77
2022/01/09 02:41:07;;;;;;;;;;;0.60;89.10;;;;;;6036893;23;19926;-77
2022/01/09 02:43:34;;;;;;;;;;;0.60;89.40;;;;;;6036727;23;19925;-78
2022/01/09 02:48:46;;;;;;;;;;;0.60;89.30;;;;;;6037349;23;19922;-77
2022/01/09 02:51:16;;;;;;;;;;;0.50;89.40;;;;;;6038393;23;19973;-77
2022/01/09 02:53:47;;;;;;;;;;;0.50;89.60;;;;;;6036809;23;19929;-77
2022/01/09 02:56:15;;;;;;;;;;;0.50;89.60;;;;;;6037632;23;19930;-77
2022/01/09 02:58:42;;;;;;;;;;;0.50;90.00;;;;;;6036113;23;19922;-77
2022/01/09 03:01:10;;;;;;;;;;;0.50;89.90;;;;;;6038226;23;19929;-79
2022/01/09 03:03:37;;;;;;;;;;;0.50;90.00;;;;;;6038491;23;19929;-78
2022/01/09 03:06:04;;;;;;;;;;;0.40;90.00;;;;;;6038802;23;19961;-79
2022/01/09 03:08:31;;;;;;;;;;;0.40;89.90;;;;;;6039222;23;20348;-77
2022/01/09 03:10:58;;;;;;;;;;;0.40;90.00;;;;;;6039030;23;20029;-78
2022/01/09 03:13:25;;;;;;;;;;;0.40;89.90;;;;;;6039990;23;19922;-77
2022/01/09 03:15:52;;;;;;;;;;;0.30;89.80;;;;;;6037732;23;20348;-79
2022/01/09 03:18:19;;;;;;;;;;;0.30;89.70;;;;;;6038797;23;20175;-77
2022/01/09 03:20:46;;;;;;;;;;;0.30;90.30;;;;;;6038663;23;19926;-77
2022/01/09 03:23:12;;;;;;;;;;;0.20;89.60;;;;;;6038512;23;19946;-77
2022/01/09 03:25:39;;;;;;;;;;;0.20;89.30;;;;;;6038179;23;19936;-77
2022/01/09 03:28:06;;;;;;;;;;;0.10;88.80;;;;;;6036789;23;19974;-78
2022/01/09 03:30:33;;;;;;;;;;;0.00;89.60;;;;;;6037791;23;19922;-78
2022/01/09 03:32:59;;;;;;;;;;;-0.10;90.00;;;;;;6038343;23;19985;-79
2022/01/09 03:35:29;;;;;;;;;;;-0.30;90.10;;;;;;6037934;23;19945;-78
2022/01/09 03:37:56;;;;;;;;;;;-0.30;90.20;;;;;;6038329;23;19974;-77
2022/01/09 03:40:25;;;;;;;;;;;-0.30;90.60;;;;;;6038538;23;19929;-77
2022/01/09 03:42:52;;;;;;;;;;;-0.30;90.60;;;;;;6037952;23;19925;-79
2022/01/09 03:45:20;;;;;;;;;;;-0.30;90.50;;;;;;6038373;23;19937;-77
2022/01/09 03:47:47;;;;;;;;;;;-0.30;90.70;;;;;;6037448;23;19922;-77
2022/01/09 03:50:14;;;;;;;;;;;-0.30;90.80;;;;;;6039504;23;20009;-78
2022/01/09 03:52:41;;;;;;;;;;;-0.30;90.70;;;;;;6038072;23;20002;-77
2022/01/09 03:55:10;;;;;;;;;;;-0.30;90.50;;;;;;6037353;23;20447;-77
2022/01/09 03:57:37;;;;;;;;;;;-0.30;90.40;;;;;;6040696;23;19938;-77
2022/01/09 04:00:05;;;;;;;;;;;-0.40;90.30;;;;;;6038451;23;19997;-77
2022/01/09 04:02:31;;;;;;;;;;;-0.40;90.10;;;;;;6039784;23;19925;-78
2022/01/09 04:04:58;;;;;;;;;;;-0.50;90.00;;;;;;6037771;23;20001;-79
2022/01/09 04:07:25;;;;;;;;;;;-0.50;90.00;;;;;;6039808;23;20340;-79
2022/01/09 04:09:52;;;;;;;;;;;-0.60;90.40;;;;;;6036880;23;19922;-79
2022/01/09 04:12:29;;;;;;;;;;;-0.60;90.00;;;;;;6037969;23;19957;-78
2022/01/09 04:14:56;;;;;;;;;;;-0.60;89.90;;;;;;6038278;23;19922;-77
2022/01/09 04:20:09;;;;;;;;;;;-0.70;89.70;;;;;;6039207;23;19956;-79
2022/01/09 04:22:36;;;;;;;;;;;-0.80;90.00;;;;;;6039518;23;19973;-79
2022/01/09 04:25:03;;;;;;;;;;;-0.70;89.90;;;;;;6039784;23;19926;-77
2022/01/09 04:27:30;;;;;;;;;;;-0.80;89.90;;;;;;6038915;23;19922;-78
2022/01/09 04:29:57;;;;;;;;;;;-0.80;89.60;;;;;;6038713;23;20348;-77
2022/01/09 04:32:24;;;;;;;;;;;-0.80;89.40;;;;;;6039384;23;19926;-78
2022/01/09 04:34:53;;;;;;;;;;;-0.80;89.20;;;;;;6037210;23;19929;-77
2022/01/09 04:37:20;;;;;;;;;;;-0.80;89.00;;;;;;6039137;23;20297;-77
2022/01/09 04:39:49;;;;;;;;;;;-0.90;89.20;;;;;;6037793;23;20343;-77
2022/01/09 04:42:16;;;;;;;;;;;-0.90;89.60;;;;;;6039483;23;20285;-77
2022/01/09 04:44:43;;;;;;;;;;;-0.90;89.40;;;;;;6038626;23;20336;-77
2022/01/09 04:47:15;;;;;;;;;;;-0.90;89.20;;;;;;6038793;23;20568;-79
2022/01/09 04:49:44;;;;;;;;;;;-0.90;89.10;;;;;;6040561;23;19989;-76
2022/01/09 04:52:17;;;;;;;;;;;-0.90;89.20;;;;;;6037892;23;19922;-77
2022/01/09 04:54:44;;;;;;;;;;;-0.90;89.30;;;;;;6041433;23;19997;-77
2022/01/09 04:57:12;;;;;;;;;;;-0.90;89.20;;;;;;6037949;23;19929;-78
2022/01/09 04:59:39;;;;;;;;;;;-1.00;90.20;;;;;;6039235;23;19930;-79
2022/01/09 05:02:06;;;;;;;;;;;-1.00;89.40;;;;;;6038628;23;19922;-77
2022/01/09 05:04:33;;;;;;;;;;;-1.00;89.10;;;;;;6038902;23;20344;-77
2022/01/09 05:06:59;;;;;;;;;;;-1.00;88.90;;;;;;6038614;23;19997;-79
2022/01/09 05:09:26;;;;;;;;;;;-1.00;88.90;;;;;;6038299;23;19922;-77
2022/01/09 05:11:53;;;;;;;;;;;-1.10;88.90;;;;;;6037308;23;20308;-79
2022/01/09 05:14:20;;;;;;;;;;;-1.10;89.30;;;;;;6038499;23;20304;-79
2022/01/09 05:16:47;;;;;;;;;;;-1.10;89.20;;;;;;6038279;23;20163;-79
2022/01/09 05:19:19;;;;;;;;;;;-1.10;88.90;;;;;;6038936;23;20305;-77
2022/01/09 05:21:47;;;;;;;;;;;-1.20;89.60;;;;;;6037770;23;19922;-76
2022/01/09 05:24:14;;;;;;;;;;;-1.30;89.60;;;;;;6037740;23;19922;-78
2022/01/09 05:26:42;;;;;;;;;;;-1.30;89.60;;;;;;6038121;23;19922;-79
2022/01/09 05:29:09;;;;;;;;;;;-1.30;90.00;;;;;;6036451;23;19933;-78
2022/01/09 05:31:36;;;;;;;;;;;-1.40;89.90;;;;;;6037726;23;20021;-79
2022/01/09 05:34:02;;;;;;;;;;;-1.40;90.10;;;;;;6036853;23;19922;-79
2022/01/09 05:36:29;;;;;;;;;;;-1.50;90.40;;;;;;6037681;23;19930;-77
2022/01/09 05:38:56;;;;;;;;;;;-1.50;91.00;;;;;;6037693;23;19929;-77
2022/01/09 05:41:23;;;;;;;;;;;-1.40;92.30;;;;;;6036940;23;19973;-77
2022/01/09 05:43:50;;;;;;;;;;;-1.30;91.70;;;;;;6037313;23;19925;-78
2022/01/09 05:46:17;;;;;;;;;;;-1.30;91.70;;;;;;6055258;23;20520;-76
2022/01/09 05:48:44;;;;;;;;;;;-1.30;91.50;;;;;;6042221;23;19946;-79
2022/01/09 05:51:10;;;;;;;;;;;-1.30;91.30;;;;;;6040818;23;20338;-78
2022/01/09 05:53:37;;;;;;;;;;;-1.30;91.40;;;;;;6041782;23;19922;-78
2022/01/09 05:56:04;;;;;;;;;;;-1.30;91.30;;;;;;6018546;23;19926;-79
2022/01/09 05:58:33;;;;;;;;;;;-1.30;91.10;;;;;;6067626;23;19954;-78
2022/01/09 06:01:00;;;;;;;;;;;-1.20;91.10;;;;;;6065980;23;19996;-77
2022/01/09 06:03:27;;;;;;;;;;;-1.20;91.10;;;;;;6042036;23;19949;-77
2022/01/09 06:05:54;;;;;;;;;;;-1.20;91.10;;;;;;6040912;23;19926;-79
2022/01/09 06:08:21;;;;;;;;;;;-1.20;91.40;;;;;;6042355;23;19956;-77
2022/01/09 06:10:47;;;;;;;;;;;-1.10;91.70;;;;;;6042996;23;20292;-79
2022/01/09 06:13:14;;;;;;;;;;;-1.10;91.50;;;;;;6042349;23;19930;-77
2022/01/09 06:15:41;;;;;;;;;;;-1.10;91.60;;;;;;6042149;23;19926;-77
2022/01/09 06:18:08;;;;;;;;;;;-1.00;91.70;;;;;;6041119;23;19986;-78
2022/01/09 06:20:35;;;;;;;;;;;-1.00;91.50;;;;;;6042187;23;19928;-78
2022/01/09 06:23:02;;;;;;;;;;;-1.10;91.30;;;;;;6041283;23;19921;-77
2022/01/09 06:25:29;;;;;;;;;;;-1.10;91.30;;;;;;6066992;23;19921;-79
2022/01/09 06:27:55;;;;;;;;;;;-1.10;91.30;;;;;;6017933;23;19922;-77
2022/01/09 06:30:22;;;;;;;;;;;-1.10;91.10;;;;;;6067150;23;20477;-79
2022/01/09 06:32:49;;;;;;;;;;;-1.30;91.10;;;;;;6068104;23;19926;-77
2022/01/09 06:35:16;;;;;;;;;;;-1.20;91.70;;;;;;6043724;23;20399;-79
2022/01/09 06:37:43;;;;;;;;;;;-1.20;91.40;;;;;;6044393;23;19922;-77
2022/01/09 06:40:09;;;;;;;;;;;-1.30;91.30;;;;;;6067771;23;20000;-78
2022/01/09 06:42:38;;;;;;;;;;;-1.30;91.40;;;;;;6043207;23;19933;-79
2022/01/09 06:45:05;;;;;;;;;;;-1.30;91.30;;;;;;6043233;23;20366;-79
2022/01/09 06:47:32;;;;;;;;;;;-1.30;91.20;;;;;;6042815;23;19929;-77
2022/01/09 06:49:59;;;;;;;;;;;-1.30;91.00;;;;;;6042944;23;19925;-78
2022/01/09 06:52:26;;;;;;;;;;;-1.40;91.10;;;;;;6044128;23;19977;-79
2022/01/09 06:54:53;;;;;;;;;;;-1.50;90.80;;;;;;6044403;23;19926;-77
2022/01/09 06:57:19;;;;;;;;;;;-1.50;90.50;;;;;;6043119;23;20406;-78
2022/01/09 06:59:46;;;;;;;;;;;-1.60;90.70;;;;;;6044529;23;20236;-77
2022/01/09 07:02:13;;;;;;;;;;;-1.80;90.80;;;;;;6042143;23;19926;-77
2022/01/09 07:04:40;;;;;;;;;;;-1.80;90.70;;;;;;6044265;23;19922;-77
2022/01/09 07:07:07;;;;;;;;;;;-1.90;90.60;;;;;;6043065;23;19949;-77
2022/01/09 07:09:34;;;;;;;;;;;-1.90;90.40;;;;;;6043659;23;19929;-77
2022/01/09 07:12:01;;;;;;;;;;;-1.90;90.40;;;;;;6043028;23;19926;-79
2022/01/09 07:14:28;;;;;;;;;;;-1.90;91.30;;;;;;6044097;23;19928;-77
2022/01/09 07:16:54;;;;;;;;;;;-1.90;91.20;;;;;;6043969;23;19925;-77
2022/01/09 07:19:21;;;;;;;;;;;-1.90;91.00;;;;;;6043567;23;20236;-77
2022/01/09 07:21:48;;;;;;;;;;;-1.90;91.20;;;;;;6043108;23;20398;-77
2022/01/09 07:24:15;;;;;;;;;;;-1.90;91.00;;;;;;6042962;23;20339;-77
2022/01/09 07:26:42;;;;;;;;;;;-1.90;90.90;;;;;;6043887;23;19973;-79
2022/01/09 07:29:09;;;;;;;;;;;-1.80;91.40;;;;;;6068155;23;19926;-78
2022/01/09 07:31:36;;;;;;;;;;;-1.80;91.50;;;;;;6068979;23;19928;-77
2022/01/09 07:34:02;;;;;;;;;;;-1.80;91.40;;;;;;6067772;23;19969;-77
2022/01/09 07:36:29;;;;;;;;;;;-1.80;91.10;;;;;;6044410;23;19929;-77
2022/01/09 07:38:56;;;;;;;;;;;-1.70;91.80;;;;;;6043383;23;19969;-77
2022/01/09 07:41:24;;;;;;;;;;;-1.60;92.20;;;;;;6026564;23;20804;-79
2022/01/09 07:43:51;;;;;;;;;;;-1.50;91.80;;;;;;6038188;23;20305;-78
2022/01/09 07:46:18;;;;;;;;;;;-1.50;91.80;;;;;;6037498;23;19922;-79
2022/01/09 07:48:45;;;;;;;;;;;-1.40;91.90;;;;;;6039244;23;19925;-78
2022/01/09 07:51:12;;;;;;;;;;;-1.30;91.90;;;;;;6038089;23;19926;-78
2022/01/09 07:53:39;;;;;;;;;;;-1.00;91.60;;;;;;6040226;23;19930;-77
2022/01/09 07:56:06;;;;;;;;;;;-0.80;91.30;;;;;;6037479;23;19925;-77
2022/01/09 07:58:33;;;;;;;;;;;-0.30;90.80;;;;;;6038445;23;19921;-79
2022/01/09 08:00:59;;;;;;;;;;;0.10;89.60;;;;;;6040020;23;19926;-80
2022/01/09 08:03:26;;;;;;;;;;;0.60;87.90;;;;;;6039135;23;19922;-80
2022/01/09 08:05:53;;;;;;;;;;;0.80;86.90;;;;;;6038706;23;19926;-77
2022/01/09 08:08:20;;;;;;;;;;;1.00;86.00;;;;;;6037878;23;19928;-78
2022/01/09 08:10:47;;;;;;;;;;;1.10;85.20;;;;;;6038215;23;19922;-79
2022/01/09 08:13:14;;;;;;;;;;;1.10;84.30;;;;;;6038585;23;19991;-78
2022/01/09 08:15:41;;;;;;;;;;;1.10;84.70;;;;;;6038129;23;20162;-78
2022/01/09 08:18:08;;;;;;;;;;;1.10;84.30;;;;;;6038971;23;19928;-77
2022/01/09 08:20:35;;;;;;;;;;;1.20;84.20;;;;;;6037526;23;19952;-78
2022/01/09 08:23:02;;;;;;;;;;;1.30;83.30;;;;;;6037939;23;19973;-77
2022/01/09 08:25:34;;;;;;;;;;;1.30;83.40;;;;;;6037462;23;19997;-77
2022/01/09 08:28:01;;;;;;;;;;;1.40;83.60;;;;;;6038117;23;19926;-77
2022/01/09 08:30:27;;;;;;;;;;;1.50;83.20;;;;;;6037398;23;20347;-79
2022/01/09 08:32:54;;;;;;;;;;;1.70;83.00;;;;;;6038113;23;19926;-79
2022/01/09 08:35:22;;;;;;;;;;;1.80;82.50;;;;;;6037148;23;19926;-77
2022/01/09 08:37:49;;;;;;;;;;;1.80;81.10;;;;;;6038445;23;20359;-79
2022/01/09 08:40:19;;;;;;;;;;;1.90;82.00;;;;;;6037088;23;19929;-77
2022/01/09 08:42:47;;;;;;;;;;;2.00;82.30;;;;;;6037750;23;19922;-77
2022/01/09 08:45:14;;;;;;;;;;;2.20;81.40;;;;;;6037702;23;19922;-79
2022/01/09 08:47:41;;;;;;;;;;;2.30;81.20;;;;;;6038430;23;19969;-77
2022/01/09 08:50:09;;;;;;;;;;;2.40;80.90;;;;;;6037428;23;19977;-77
2022/01/09 08:52:35;;;;;;;;;;;2.50;80.40;;;;;;6037153;23;19922;-79
2022/01/09 08:55:04;;;;;;;;;;;2.60;80.30;;;;;;6037934;23;19925;-80
2022/01/09 08:57:31;;;;;;;;;;;2.70;79.20;;;;;;6013676;23;19953;-78
2022/01/09 08:59:58;;;;;;;;;;;2.50;79.50;;;;;;6038326;23;19997;-79
2022/01/09 09:02:25;;;;;;;;;;;2.60;79.80;;;;;;6036948;23;19922;-77
2022/01/09 09:04:52;;;;;;;;;;;2.70;80.00;;;;;;6038319;23;19921;-77
2022/01/09 09:07:23;;;;;;;;;;;2.70;79.90;;;;;;6036534;23;19985;-78
2022/01/09 09:09:50;;;;;;;;;;;2.70;80.50;;;;;;6038431;23;19978;-78
2022/01/09 09:12:17;;;;;;;;;;;2.50;79.90;;;;;;6036606;23;19973;-78
2022/01/09 09:14:46;;;;;;;;;;;2.70;80.00;;;;;;6037242;23;19978;-77
2022/01/09 09:17:13;;;;;;;;;;;2.70;80.00;;;;;;6037834;23;19922;-79
2022/01/09 09:19:40;;;;;;;;;;;2.90;80.20;;;;;;6037134;23;20477;-77
2022/01/09 09:22:07;;;;;;;;;;;3.10;79.40;;;;;;6036915;23;19922;-77
2022/01/09 09:24:35;;;;;;;;;;;3.10;78.60;;;;;;6036386;23;19929;-80
2022/01/09 09:27:02;;;;;;;;;;;3.10;78.70;;;;;;6036676;23;20347;-77
2022/01/09 09:29:29;;;;;;;;;;;3.20;77.70;;;;;;6036810;23;19922;-78
2022/01/09 09:31:56;;;;;;;;;;;3.30;78.40;;;;;;6037709;23;19969;-77
2022/01/09 09:34:22;;;;;;;;;;;3.20;77.50;;;;;;6036065;23;19929;-80
2022/01/09 09:36:50;;;;;;;;;;;3.20;77.70;;;;;;6037358;23;19973;-79
2022/01/09 09:39:17;;;;;;;;;;;3.30;77.90;;;;;;6038740;23;19922;-80
2022/01/09 09:41:44;;;;;;;;;;;3.40;77.60;;;;;;6037145;23;19922;-80
2022/01/09 09:44:12;;;;;;;;;;;3.50;76.40;;;;;;6036751;23;19933;-78
2022/01/09 09:46:39;;;;;;;;;;;3.50;76.70;;;;;;6036935;23;19932;-79
2022/01/09 09:49:06;;;;;;;;;;;3.60;77.30;;;;;;6037270;23;20370;-77
2022/01/09 09:51:32;;;;;;;;;;;3.60;75.60;;;;;;6036574;23;19922;-77
2022/01/09 09:54:00;;;;;;;;;;;3.80;75.60;;;;;;6038920;23;19978;-78
2022/01/09 09:56:27;;;;;;;;;;;3.90;74.40;;;;;;6036790;23;19926;-76
2022/01/09 09:58:57;;;;;;;;;;;4.00;74.10;;;;;;6036477;23;19933;-76
2022/01/09 10:01:30;;;;;;;;;;;4.10;74.40;;;;;;6036388;23;19929;-76
2022/01/09 10:03:58;;;;;;;;;;;4.10;73.10;;;;;;6036227;23;19922;-79
2022/01/09 10:06:35;;;;;;;;;;;4.20;72.40;;;;;;6035360;23;19922;-76
2022/01/09 10:09:21;;;;;;;;;;;4.20;71.70;;;;;;6038833;23;20003;-78
2022/01/09 10:11:51;;;;;;;;;;;4.20;71.70;;;;;;6038526;23;20476;-78
2022/01/09 10:14:23;;;;;;;;;;;4.30;71.30;;;;;;6039576;23;19922;-78
2022/01/09 10:17:09;;;;;;;;;;;4.30;71.10;;;;;;6056332;23;19921;-79
2022/01/09 10:19:43;;;;;;;;;;;4.40;71.20;;;;;;6044866;23;19969;-79
2022/01/09 10:22:30;;;;;;;;;;;4.50;70.90;;;;;;6046867;23;20315;-79
2022/01/09 10:24:57;;;;;;;;;;;4.60;69.80;;;;;;6026847;23;20682;-78
2022/01/09 10:27:28;;;;;;;;;;;4.60;69.80;;;;;;6040392;23;19921;-79
2022/01/09 10:29:55;;;;;;;;;;;4.70;69.60;;;;;;6037600;23;19922;-76
2022/01/09 10:32:28;;;;;;;;;;;4.80;69.90;;;;;;6041739;23;19926;-76
2022/01/09 10:35:14;;;;;;;;;;;4.90;69.20;;;;;;6013754;23;20366;-79
2022/01/09 10:37:42;;;;;;;;;;;4.90;68.10;;;;;;6038772;23;20244;-79
2022/01/09 10:40:11;;;;;;;;;;;5.00;67.80;;;;;;6038101;23;20259;-76
2022/01/09 10:42:38;;;;;;;;;;;5.00;67.70;;;;;;6038015;23;20336;-76
2022/01/09 10:45:14;;;;;;;;;;;5.00;66.70;;;;;;6039636;23;19994;-79
2022/01/09 10:47:41;;;;;;;;;;;4.90;66.90;;;;;;6039778;23;19933;-79
2022/01/09 10:50:10;;;;;;;;;;;4.90;66.80;;;;;;6038525;23;19922;-79
2022/01/09 10:52:41;;;;;;;;;;;5.00;67.90;;;;;;6037286;23;19921;-76
2022/01/09 10:55:08;;;;;;;;;;;5.20;67.60;;;;;;6037452;23;19925;-79
2022/01/09 10:57:37;;;;;;;;;;;5.10;66.70;;;;;;6037011;23;20415;-79
2022/01/09 11:00:07;;;;;;;;;;;5.20;66.60;;;;;;6036963;23;19930;-79
2022/01/09 11:02:33;;;;;;;;;;;5.40;67.80;;;;;;6037887;23;20404;-78
2022/01/09 11:05:00;;;;;;;;;;;5.60;67.80;;;;;;6026267;23;20001;-78
2022/01/09 11:07:27;;;;;;;;;;;5.80;67.00;;;;;;6038374;23;19929;-78
2022/01/09 11:09:56;;;;;;;;;;;5.90;66.10;;;;;;6032878;23;19926;-78
2022/01/09 11:12:24;;;;;;;;;;;5.90;65.70;;;;;;6039456;23;20497;-79
2022/01/09 11:14:52;;;;;;;;;;;6.10;66.00;;;;;;6038228;23;19954;-79
2022/01/09 11:17:20;;;;;;;;;;;6.30;65.20;;;;;;6036142;23;20352;-76
2022/01/09 11:19:47;;;;;;;;;;;6.30;63.60;;;;;;6035852;23;19989;-79
2022/01/09 11:22:14;;;;;;;;;;;6.10;63.60;;;;;;6036369;23;20423;-77
2022/01/09 11:24:59;;;;;;;;;;;5.90;63.80;;;;;;6037797;23;19941;-79
2022/01/09 11:27:44;;;;;;;;;;;6.00;63.70;;;;;;6037639;23;19921;-80
2022/01/09 11:30:29;;;;;;;;;;;6.20;64.00;;;;;;6040021;23;19945;-80
2022/01/09 11:33:13;;;;;;;;;;;6.40;63.20;;;;;;6037436;23;19970;-79
2022/01/09 11:35:46;;;;;;;;;;;6.60;63.10;;;;;;6038019;23;19950;-80
2022/01/09 11:38:41;;;;;;;;;;;6.60;61.70;;;;;;6024685;23;20761;-76
2022/01/09 11:41:14;;;;;;;;;;;6.80;62.90;;;;;;6036139;23;19929;-76
2022/01/09 11:43:52;;;;;;;;;;;6.90;60.50;;;;;;6037266;23;19933;-79
2022/01/09 11:46:22;;;;;;;;;;;6.90;61.40;;;;;;6037101;23;19986;-76
2022/01/09 11:48:52;;;;;;;;;;;7.00;61.70;;;;;;6038673;23;19962;-80
2022/01/09 11:51:19;;;;;;;;;;;7.20;61.70;;;;;;6036857;23;19922;-79
2022/01/09 11:54:05;;;;;;;;;;;7.40;60.20;;;;;;6038229;23;19929;-76
2022/01/09 11:56:50;;;;;;;;;;;7.40;58.80;;;;;;6041360;23;20489;-76
2022/01/09 11:59:39;;;;;;;;;;;7.50;59.00;;;;;;6046145;23;20430;-76
2022/01/09 12:02:29;;;;;;;;;;;7.50;57.70;;;;;;6041184;23;19929;-80
2022/01/09 12:05:02;;;;;;;;;;;7.50;58.40;;;;;;6037775;23;20348;-78
2022/01/09 12:07:31;;;;;;;;;;;7.70;59.20;;;;;;6032296;23;19926;-80
2022/01/09 12:09:59;;;;;;;;;;;7.90;57.80;;;;;;6066260;23;19985;-79
2022/01/09 12:12:31;;;;;;;;;;;8.00;56.70;;;;;;6042381;23;19925;-79
2022/01/09 12:15:03;;;;;;;;;;;7.90;57.20;;;;;;6042319;23;20327;-78
2022/01/09 12:17:33;;;;;;;;;;;8.10;56.80;;;;;;6042622;23;19926;-79
2022/01/09 12:20:15;;;;;;;;;;;8.00;57.40;;;;;;6042573;23;19925;-80
2022/01/09 12:22:43;;;;;;;;;;;8.10;57.50;;;;;;6041829;23;19921;-76
2022/01/09 12:25:30;;;;;;;;;;;8.30;56.80;;;;;;6042656;23;20335;-79
2022/01/09 12:28:10;;;;;;;;;;;8.10;55.80;;;;;;6067150;23;19951;-75
2022/01/09 12:30:47;;;;;;;;;;;8.50;56.90;;;;;;6043099;23;19973;-78
2022/01/09 12:33:16;;;;;;;;;;;8.70;55.80;;;;;;6043170;23;19925;-79
2022/01/09 12:35:49;;;;;;;;;;;8.90;55.30;;;;;;6066183;23;19932;-76
2022/01/09 12:38:16;;;;;;;;;;;8.90;53.70;;;;;;6043765;23;19928;-76
2022/01/09 12:40:44;;;;;;;;;;;9.10;53.60;;;;;;6042458;23;19926;-80
2022/01/09 12:43:12;;;;;;;;;;;9.10;53.60;;;;;;6067607;23;20339;-79
2022/01/09 12:45:43;;;;;;;;;;;9.20;53.20;;;;;;6068696;23;19932;-77
2022/01/09 12:48:21;;;;;;;;;;;9.10;52.70;;;;;;6066437;23;20383;-76
2022/01/09 12:50:48;;;;;;;;;;;9.20;53.00;;;;;;6039858;23;19949;-79
2022/01/09 12:53:23;;;;;;;;;;;9.40;53.60;;;;;;6042500;23;19932;-76
2022/01/09 12:55:59;;;;;;;;;;;9.60;53.10;;;;;;6042026;23;19921;-79
2022/01/09 12:58:30;;;;;;;;;;;9.70;52.00;;;;;;6042392;23;19969;-79
2022/01/09 13:00:57;;;;;;;;;;;9.80;51.20;;;;;;6065533;23;19928;-80
2022/01/09 13:03:26;;;;;;;;;;;10.00;51.90;;;;;;6042193;23;19925;-79
2022/01/09 13:05:54;;;;;;;;;;;10.10;51.10;;;;;;6040880;23;19921;-76
2022/01/09 13:08:21;;;;;;;;;;;10.00;51.00;;;;;;6068059;23;20336;-79
2022/01/09 13:11:02;;;;;;;;;;;10.10;51.40;;;;;;6041550;23;19973;-79
2022/01/09 13:13:30;;;;;;;;;;;10.10;51.40;;;;;;6042673;23;19929;-79
2022/01/09 13:15:56;;;;;;;;;;;10.20;50.60;;;;;;6041292;23;19922;-79
2022/01/09 13:18:43;;;;;;;;;;;9.90;50.80;;;;;;6041983;23;19926;-79
2022/01/09 13:21:20;;;;;;;;;;;10.00;50.20;;;;;;6066382;23;19925;-79
2022/01/09 13:23:51;;;;;;;;;;;10.10;50.30;;;;;;6041653;23;20407;-78
2022/01/09 13:26:17;;;;;;;;;;;10.20;51.00;;;;;;6042126;23;19929;-79
2022/01/09 13:28:45;;;;;;;;;;;10.20;50.50;;;;;;6043562;23;19985;-76
2022/01/09 13:31:12;;;;;;;;;;;10.30;51.80;;;;;;6041083;23;20439;-79
2022/01/09 13:34:03;;;;;;;;;;;10.40;50.60;;;;;;6043616;23;19974;-78
2022/01/09 13:36:31;;;;;;;;;;;10.50;48.50;;;;;;6041034;23;19931;-80
2022/01/09 13:38:59;;;;;;;;;;;10.40;50.10;;;;;;6043827;23;19921;-79
2022/01/09 13:41:30;;;;;;;;;;;10.30;50.30;;;;;;6041131;23;19929;-79
2022/01/09 13:43:57;;;;;;;;;;;10.20;50.30;;;;;;6041246;23;19922;-79
2022/01/09 13:46:24;;;;;;;;;;;10.20;49.90;;;;;;6040705;23;19926;-76
2022/01/09 13:48:51;;;;;;;;;;;10.20;50.10;;;;;;6042273;23;19937;-79
2022/01/09 13:51:36;;;;;;;;;;;10.20;49.40;;;;;;6040483;23;19921;-76
2022/01/09 13:54:04;;;;;;;;;;;10.20;49.40;;;;;;6066740;23;19925;-78
2022/01/09 13:56:31;;;;;;;;;;;10.30;49.50;;;;;;6040815;23;19921;-79
2022/01/09 13:58:58;;;;;;;;;;;10.20;50.60;;;;;;6041947;23;20407;-79
2022/01/09 14:01:43;;;;;;;;;;;10.10;52.30;;;;;;6017061;23;19989;-76
2022/01/09 14:04:12;;;;;;;;;;;9.90;52.70;;;;;;6017484;23;19928;-79
2022/01/09 14:06:39;;;;;;;;;;;9.80;53.30;;;;;;6042029;23;20307;-79
2022/01/09 14:09:07;;;;;;;;;;;9.60;53.10;;;;;;6041898;23;20263;-78
2022/01/09 14:11:34;;;;;;;;;;;9.60;53.90;;;;;;6041524;23;19933;-79
2022/01/09 14:14:01;;;;;;;;;;;9.30;55.10;;;;;;6042822;23;19922;-79
2022/01/09 14:16:35;;;;;;;;;;;9.40;54.30;;;;;;6041275;23;19922;-79
2022/01/09 14:19:05;;;;;;;;;;;9.20;53.30;;;;;;6042688;23;20299;-79
2022/01/09 14:21:33;;;;;;;;;;;9.10;53.70;;;;;;6040933;23;19929;-78
2022/01/09 14:24:07;;;;;;;;;;;9.10;54.30;;;;;;6066288;23;19926;-78
2022/01/09 14:26:34;;;;;;;;;;;9.00;54.10;;;;;;6041382;23;20284;-79
2022/01/09 14:29:02;;;;;;;;;;;8.90;54.30;;;;;;6041395;23;20259;-76
2022/01/09 14:31:34;;;;;;;;;;;8.70;54.50;;;;;;6040711;23;19929;-78
2022/01/09 14:34:01;;;;;;;;;;;8.60;54.60;;;;;;6066225;23;19921;-76
2022/01/09 14:36:29;;;;;;;;;;;8.60;54.70;;;;;;6040898;23;19922;-78
2022/01/09 14:38:57;;;;;;;;;;;8.60;54.00;;;;;;6066533;23;19929;-76